EDLN/MGL METAR and TAF weather

Enter ICAO airport designator
Station Type Date Time Source
EDLN METAR 2022/01/29 10:50 UTC NOAA

EDLN 291050Z 23011G21KT 180V280 6000 -DZ OVC010 09/07 Q1024


Station Type Date Time Source
EDLN Decoded METAR 2022/01/29 10:50 UTC NOAA

Monchengladbach, Germany (EDLN) 51-13-49N 006-30-16E
Jan 29, 2022 - 05:50 AM EST / 2022.01.29 1050 UTC
Wind: from the SW (230 degrees) at 13 MPH (11 KT) gusting to 24 MPH (21 KT) (direction variable):0
Visibility: 3 mile(s):0
Sky conditions: overcast
Weather: light drizzle
Temperature: 48 F (9 C)
Dew Point: 44 F (7 C)
Relative Humidity: 87%
Pressure (altimeter): 30.24 in. Hg (1024 hPa)
ob: EDLN 291050Z 23011G21KT 180V280 6000 -DZ OVC010 09/07 Q1024
cycle: 11

Station Type Date Time Source
EDLN TAF 2010/02/22 14:20 UTC NOAA

METAR EDLN 221420Z 18010G20KT 090V240 9999 SCT030 BKN045 11/06 Q0986
RMK ATIS R=

Example: see airport list